Time;durP1;ratioP1;P1;durP2;ratioP2;P2;SDS_P1;SDS_P2;PMS_P1;PMS_P2;Temp;Humidity;BMP_temperature;BMP_pressure;BME280_temperature;BME280_humidity;BME280_pressure;Samples;Min_cycle;Max_cycle;Signal;HPM_P1;HPM_P2
2022/10/12 00:01:51;;;;;;;;;18.50;16.25;;;;;12.71;52.70;102021.66;4940461;28;45495;-82
2022/10/12 00:04:17;;;;;;;;;16.00;14.50;;;;;12.76;52.92;102026.09;4923895;28;45415;-82
2022/10/12 00:06:42;;;;;;;;;11.75;11.00;;;;;12.64;53.45;102006.63;4942403;28;45386;-82
2022/10/12 00:09:10;;;;;;;;;16.75;15.50;;;;;12.72;53.28;102032.25;4941496;28;45597;-81
2022/10/12 00:11:35;;;;;;;;;13.00;13.00;;;;;12.60;53.28;102013.66;4924923;28;45284;-82
2022/10/12 00:14:01;;;;;;;;;16.00;15.50;;;;;12.57;53.58;102009.22;4954895;28;45196;-82
2022/10/12 00:16:30;;;;;;;;;14.50;14.00;;;;;12.61;53.67;102006.59;4926196;28;45431;-82
2022/10/12 00:18:57;;;;;;;;;15.50;12.75;;;;;12.53;54.00;102003.88;4925257;28;48067;-81
2022/10/12 00:21:24;;;;;;;;;15.25;14.25;;;;;12.58;53.84;102018.91;4942901;28;45501;-81
2022/10/12 00:23:50;;;;;;;;;15.25;14.75;;;;;12.36;53.73;101982.63;4938500;28;45501;-82
2022/10/12 00:26:21;;;;;;;;;15.50;13.25;;;;;12.38;53.81;101985.28;4942806;28;45669;-81
2022/10/12 00:28:47;;;;;;;;;16.50;15.75;;;;;12.51;53.48;102009.19;4924898;28;45480;-82
2022/10/12 00:31:18;;;;;;;;;18.50;16.00;;;;;12.49;53.83;102003.00;4942066;28;45276;-82
2022/10/12 00:33:45;;;;;;;;;18.50;16.50;;;;;12.65;54.46;102030.44;4942071;28;45315;-82
2022/10/12 00:36:18;;;;;;;;;14.25;13.50;;;;;12.64;54.21;102033.91;4940028;28;45380;-81
2022/10/12 00:38:44;;;;;;;;;12.25;12.25;;;;;12.63;53.98;102029.53;4941150;28;45253;-81
2022/10/12 00:41:11;;;;;;;;;13.75;13.00;;;;;12.61;53.58;102033.91;4937548;28;45559;-81
2022/10/12 00:43:40;;;;;;;;;12.50;11.50;;;;;12.60;53.90;102040.06;4919607;28;45303;-81
2022/10/12 00:46:17;;;;;;;;;16.00;13.75;;;;;12.54;53.95;102027.69;4924726;28;45541;-82
2022/10/12 00:48:45;;;;;;;;;16.75;14.00;;;;;12.54;53.89;102032.97;4941733;28;45388;-81
2022/10/12 00:51:11;;;;;;;;;14.50;14.50;;;;;12.47;54.09;102033.78;4941747;28;45513;-82
2022/10/12 00:53:42;;;;;;;;;15.50;15.00;;;;;12.28;53.81;101994.88;4941366;28;45365;-82
2022/10/12 00:56:17;;;;;;;;;14.75;14.00;;;;;12.40;54.25;102021.38;4914878;28;45493;-82
2022/10/12 00:58:43;;;;;;;;;12.75;12.00;;;;;12.31;54.15;102008.97;4922647;28;47119;-82
2022/10/12 01:01:09;;;;;;;;;16.00;15.50;;;;;12.20;54.16;101989.53;4941425;28;45231;-81
2022/10/12 01:03:36;;;;;;;;;19.25;17.75;;;;;12.30;54.34;102022.19;4924065;28;45555;-81
2022/10/12 01:06:02;;;;;;;;;22.00;22.00;;;;;12.22;54.60;102002.75;4941607;28;45270;-81
2022/10/12 01:08:29;;;;;;;;;16.00;16.00;;;;;12.35;54.66;102034.56;4940267;28;47224;-81
2022/10/12 01:10:54;;;;;;;;;13.00;11.25;;;;;12.15;54.90;101993.88;4924753;28;45344;-81
2022/10/12 01:13:20;;;;;;;;;16.00;13.50;;;;;12.04;55.03;101985.84;4941659;28;45850;-82
2022/10/12 01:15:58;;;;;;;;;15.75;13.75;;;;;12.22;55.52;102019.47;4941632;28;45483;-81
2022/10/12 01:18:51;;;;;;;;;15.00;13.00;;;;;12.14;55.33;102011.47;4924034;28;45587;-81
2022/10/12 01:21:19;;;;;;;;;16.50;12.75;;;;;11.93;55.33;101978.69;4940986;28;45235;-82
2022/10/12 01:24:00;;;;;;;;;10.50;9.00;;;;;12.03;55.47;102007.84;4941411;28;45312;-82
2022/10/12 01:26:34;;;;;;;;;13.00;13.00;;;;;12.14;55.42;102019.38;4929358;28;45229;-81
2022/10/12 01:29:18;;;;;;;;;15.25;12.00;;;;;12.12;55.60;102020.25;4922465;28;45770;-81
2022/10/12 01:31:55;;;;;;;;;12.75;12.25;;;;;12.09;55.64;102014.94;4924088;28;45431;-81
2022/10/12 01:35:01;;;;;;;;;11.75;11.00;;;;;12.08;55.75;102015.78;4941487;28;45169;-82
2022/10/12 01:37:45;;;;;;;;;14.00;12.00;;;;;12.04;55.83;102019.28;4924719;28;45547;-81
2022/10/12 01:40:19;;;;;;;;;15.00;12.25;;;;;11.94;56.00;102007.72;4924405;28;47086;-81
2022/10/12 01:42:46;;;;;;;;;13.50;13.50;;;;;11.93;55.99;102013.00;4929871;28;45328;-81
2022/10/12 01:45:18;;;;;;;;;15.00;14.25;;;;;11.85;56.28;102000.56;4937906;28;44840;-81
2022/10/12 01:47:51;;;;;;;;;16.25;15.75;;;;;11.73;56.21;101974.03;4935032;28;45566;-82
2022/10/12 01:50:20;;;;;;;;;15.25;12.00;;;;;11.79;56.38;101995.22;4941290;28;47762;-81
2022/10/12 01:53:04;;;;;;;;;13.00;12.00;;;;;11.91;56.49;102012.97;4943358;28;45263;-82
2022/10/12 01:55:51;;;;;;;;;12.50;10.00;;;;;11.88;56.53;102011.19;4944498;28;45379;-81
2022/10/12 01:58:38;;;;;;;;;15.50;14.00;;;;;11.76;56.66;101991.66;4927063;28;45193;-81
2022/10/12 02:01:03;;;;;;;;;15.00;14.00;;;;;11.85;56.69;102013.75;4934764;28;47017;-81
2022/10/12 02:03:58;;;;;;;;;13.50;13.50;;;;;11.81;56.88;102021.59;4926874;28;45374;-81
2022/10/12 02:06:31;;;;;;;;;12.50;12.50;;;;;11.51;56.52;101970.25;4926271;28;45458;-81
2022/10/12 02:09:13;;;;;;;;;14.50;13.75;;;;;11.71;57.29;102015.34;4926937;28;45823;-81
2022/10/12 02:11:41;;;;;;;;;13.00;12.25;;;;;11.67;57.26;102005.63;4932367;28;47347;-82
2022/10/12 02:14:13;;;;;;;;;17.50;15.00;;;;;11.38;57.46;101955.16;4951800;28;45274;-81
2022/10/12 02:16:50;;;;;;;;;15.75;13.75;;;;;11.59;57.58;102002.88;4930736;28;45438;-81
2022/10/12 02:19:22;;;;;;;;;13.75;13.75;;;;;11.30;57.78;101954.16;4944258;28;45286;-81
2022/10/12 02:21:49;;;;;;;;;15.00;13.00;;;;;11.28;58.05;101954.16;4953638;28;45653;-81
2022/10/12 02:24:17;;;;;;;;;12.00;11.00;;;;;11.43;58.08;101978.06;4947618;28;45421;-81
2022/10/12 02:26:46;;;;;;;;;16.00;14.25;;;;;11.38;58.20;101965.69;4944515;28;45238;-81
2022/10/12 02:29:18;;;;;;;;;16.75;13.25;;;;;11.49;58.19;101993.06;4944510;28;45565;-81
2022/10/12 02:32:19;;;;;;;;;16.00;14.00;;;;;11.37;58.12;101972.72;4926778;28;46941;-82
2022/10/12 02:34:58;;;;;;;;;15.00;15.00;;;;;11.46;58.37;101993.94;4905839;28;45351;-80
2022/10/12 02:37:44;;;;;;;;;15.00;15.00;;;;;11.27;58.34;101955.00;4923703;28;45359;-81
2022/10/12 02:40:16;;;;;;;;;15.50;13.50;;;;;11.42;58.51;101973.69;4944195;28;45241;-81
2022/10/12 02:42:49;;;;;;;;;11.25;11.00;;;;;11.33;58.51;101960.34;4931865;28;45340;-81
2022/10/12 02:45:16;;;;;;;;;12.50;12.50;;;;;11.34;58.35;101970.06;4940873;28;45371;-81
2022/10/12 02:47:46;;;;;;;;;14.25;13.00;;;;;11.21;58.81;101942.66;4932156;28;45296;-81
2022/10/12 02:50:12;;;;;;;;;15.25;15.00;;;;;11.26;58.53;101948.88;4943866;28;45296;-80
2022/10/12 02:52:38;;;;;;;;;13.00;13.00;;;;;11.16;58.64;101928.50;4944164;28;46341;-81
2022/10/12 02:55:04;;;;;;;;;15.75;13.00;;;;;11.20;58.83;101948.78;4925177;28;45586;-81
2022/10/12 02:57:30;;;;;;;;;14.75;12.00;;;;;11.10;58.75;101931.09;4917027;28;45284;-80
2022/10/12 02:59:55;;;;;;;;;12.50;9.75;;;;;11.15;58.81;101947.84;4938241;28;45287;-82
2022/10/12 03:02:20;;;;;;;;;4.25;3.50;;;;;11.30;58.82;101976.13;4951972;28;46156;-81
2022/10/12 03:04:46;;;;;;;;;11.75;11.75;;;;;11.29;58.98;101974.38;4947373;28;45292;-81
2022/10/12 03:07:11;;;;;;;;;13.75;12.25;;;;;11.26;59.07;101979.63;4926365;28;45244;-80
2022/10/12 03:09:37;;;;;;;;;17.50;15.25;;;;;11.25;59.25;101968.19;4943397;28;45541;-81
2022/10/12 03:12:02;;;;;;;;;13.00;12.25;;;;;11.22;59.22;101968.13;4925958;28;47312;-81
2022/10/12 03:14:28;;;;;;;;;16.50;16.00;;;;;11.21;59.20;101974.28;4943131;28;45310;-80
2022/10/12 03:16:53;;;;;;;;;15.25;13.50;;;;;11.15;59.61;101955.75;4922849;28;45273;-81
2022/10/12 03:19:19;;;;;;;;;14.50;12.25;;;;;11.05;59.38;101943.31;4920608;28;45655;-82
2022/10/12 03:21:44;;;;;;;;;16.50;13.00;;;;;11.17;59.52;101963.66;4942996;28;45243;-82
2022/10/12 03:24:10;;;;;;;;;13.00;10.50;;;;;11.14;59.61;101956.59;4925615;28;45332;-82
2022/10/12 03:26:35;;;;;;;;;14.25;13.50;;;;;11.17;59.64;101963.66;4925580;28;45383;-82
2022/10/12 03:29:01;;;;;;;;;14.75;13.00;;;;;11.06;59.41;101946.81;4942880;28;45372;-82
2022/10/12 03:31:26;;;;;;;;;15.75;12.50;;;;;11.10;59.67;101956.56;4922492;28;48049;-82
2022/10/12 03:33:52;;;;;;;;;13.25;12.50;;;;;11.11;59.55;101958.31;4938406;28;45252;-81
2022/10/12 03:36:17;;;;;;;;;18.00;17.75;;;;;11.09;59.56;101960.03;4941686;28;45334;-81
2022/10/12 03:38:43;;;;;;;;;16.75;13.75;;;;;11.08;60.00;101953.88;4922962;28;45493;-81
2022/10/12 03:41:08;;;;;;;;;13.75;13.75;;;;;10.96;59.79;101938.81;4937494;28;47987;-82
2022/10/12 03:43:34;;;;;;;;;16.75;13.50;;;;;11.11;59.72;101976.75;4938976;28;45518;-80
2022/10/12 03:45:59;;;;;;;;;17.50;13.00;;;;;11.02;59.80;101954.69;4925809;28;45319;-81
2022/10/12 03:48:25;;;;;;;;;15.50;13.00;;;;;10.97;59.86;101943.19;4926274;28;45490;-81
2022/10/12 03:50:51;;;;;;;;;15.00;13.00;;;;;11.08;59.85;101964.44;4925515;28;47254;-80
2022/10/12 03:53:17;;;;;;;;;11.00;7.75;;;;;11.02;59.81;101953.81;4925629;28;45706;-81
2022/10/12 03:55:43;;;;;;;;;15.75;13.00;;;;;11.10;59.96;101969.72;4925456;28;45273;-81
2022/10/12 03:58:08;;;;;;;;;13.25;12.25;;;;;11.12;59.77;101968.91;4924919;28;45529;-81
2022/10/12 04:00:34;;;;;;;;;13.00;13.00;;;;;11.07;59.90;101967.06;4942698;28;46411;-81
2022/10/12 04:03:01;;;;;;;;;12.25;11.00;;;;;11.04;59.81;101957.34;4942574;28;45232;-80
2022/10/12 04:05:26;;;;;;;;;12.75;10.75;;;;;10.91;59.67;101936.97;4925372;28;45345;-80
2022/10/12 04:07:52;;;;;;;;;12.50;11.25;;;;;10.96;59.75;101951.06;4925140;28;45789;-80
2022/10/12 04:10:17;;;;;;;;;13.75;13.00;;;;;10.95;59.75;101952.81;4925116;28;48196;-80
2022/10/12 04:12:43;;;;;;;;;16.25;14.25;;;;;10.95;59.92;101954.56;4941524;28;45429;-80
2022/10/12 04:15:08;;;;;;;;;17.00;14.00;;;;;10.90;60.12;101954.50;4942750;28;45367;-80
2022/10/12 04:17:34;;;;;;;;;17.25;14.00;;;;;11.02;59.94;101972.25;4924949;28;45449;-80
2022/10/12 04:20:00;;;;;;;;;15.25;14.00;;;;;10.88;59.94;101952.72;4942065;28;46233;-80
2022/10/12 04:22:25;;;;;;;;;17.75;13.25;;;;;10.94;60.08;101974.78;4942227;28;45473;-81
2022/10/12 04:24:50;;;;;;;;;13.75;13.75;;;;;10.96;60.18;101983.59;4942804;28;45413;-81
2022/10/12 04:27:16;;;;;;;;;13.75;10.75;;;;;10.84;60.17;101967.59;4942152;28;45246;-81
2022/10/12 04:29:41;;;;;;;;;13.50;12.25;;;;;10.67;60.22;101937.50;4942204;28;46476;-81
2022/10/12 04:32:07;;;;;;;;;15.00;13.00;;;;;10.91;59.99;101987.91;4942192;28;45261;-80
2022/10/12 04:34:34;;;;;;;;;15.25;13.75;;;;;10.79;60.40;101972.78;4924474;28;45230;-81
2022/10/12 04:37:00;;;;;;;;;17.50;15.00;;;;;10.73;60.16;101966.56;4954693;28;45240;-80
2022/10/12 04:39:26;;;;;;;;;12.75;12.50;;;;;10.69;60.00;101970.00;4924702;28;46890;-80
2022/10/12 04:41:51;;;;;;;;;15.75;12.25;;;;;10.75;60.43;101976.25;4924194;28;45452;-81
2022/10/12 04:44:16;;;;;;;;;13.00;12.50;;;;;10.67;60.40;101967.34;4924456;28;45918;-81
2022/10/12 04:46:44;;;;;;;;;17.25;13.00;;;;;10.51;60.36;101945.16;4941688;28;45430;-81
2022/10/12 04:49:10;;;;;;;;;12.00;11.50;;;;;10.44;60.29;101935.38;4941911;28;45420;-81
2022/10/12 04:51:35;;;;;;;;;14.25;10.75;;;;;10.58;60.32;101970.72;4941629;28;45257;-80
2022/10/12 04:54:01;;;;;;;;;10.50;7.50;;;;;10.41;60.42;101948.50;4942084;28;45179;-81
2022/10/12 04:56:27;;;;;;;;;17.50;13.25;;;;;10.56;60.88;101975.06;4929594;28;45199;-81
2022/10/12 04:58:52;;;;;;;;;13.50;11.00;;;;;10.37;60.71;101950.19;4924053;28;46978;-81
2022/10/12 05:01:17;;;;;;;;;15.50;13.25;;;;;10.37;60.94;101946.66;4941574;28;45487;-80
2022/10/12 05:03:43;;;;;;;;;12.50;11.00;;;;;10.31;61.19;101942.19;4941801;28;45164;-82
2022/10/12 05:06:08;;;;;;;;;13.50;11.00;;;;;10.36;61.01;101958.06;4924373;28;45204;-80
2022/10/12 05:08:34;;;;;;;;;16.25;14.00;;;;;10.42;61.08;101973.94;4941484;28;46477;-80
2022/10/12 05:10:59;;;;;;;;;19.00;13.00;;;;;10.24;61.76;101940.28;4924201;28;45287;-80
2022/10/12 05:13:26;;;;;;;;;12.25;12.25;;;;;10.31;61.66;101952.72;4921191;28;45185;-80
2022/10/12 05:15:51;;;;;;;;;12.25;10.75;;;;;10.40;61.41;101975.69;4933847;28;45427;-80
2022/10/12 05:18:17;;;;;;;;;16.25;15.50;;;;;10.37;61.72;101981.78;4928803;28;46058;-80
2022/10/12 05:20:43;;;;;;;;;20.75;17.50;;;;;10.36;61.52;101971.22;4941734;28;45424;-80
2022/10/12 05:23:10;;;;;;;;;14.75;14.00;;;;;10.22;61.88;101955.16;4935255;28;45431;-80
2022/10/12 05:25:35;;;;;;;;;18.25;16.25;;;;;10.32;61.89;101966.78;4945410;28;45363;-80
2022/10/12 05:28:01;;;;;;;;;20.75;18.00;;;;;10.08;62.12;101938.25;4927428;28;48483;-81
2022/10/12 05:30:27;;;;;;;;;21.50;18.25;;;;;10.36;61.97;101982.63;4944562;28;45173;-80
2022/10/12 05:32:52;;;;;;;;;15.50;14.50;;;;;10.14;62.14;101947.13;4927385;28;45372;-81
2022/10/12 05:35:18;;;;;;;;;16.75;15.00;;;;;10.15;62.34;101943.63;4931133;28;45494;-81
2022/10/12 05:37:43;;;;;;;;;18.25;16.50;;;;;10.25;62.28;101967.50;4944326;28;45906;-81
2022/10/12 05:40:09;;;;;;;;;16.25;14.00;;;;;10.32;62.15;101986.09;4939101;28;45949;-80
2022/10/12 05:42:34;;;;;;;;;18.00;16.25;;;;;10.22;61.97;101968.31;4944973;28;45288;-81
2022/10/12 05:45:00;;;;;;;;;13.75;12.00;;;;;10.00;62.25;101926.72;4927205;28;45316;-81
2022/10/12 05:47:26;;;;;;;;;17.25;14.00;;;;;10.15;61.76;101964.69;4926815;28;48396;-82
2022/10/12 05:49:51;;;;;;;;;19.75;15.25;;;;;10.18;62.32;101957.72;4923333;28;45416;-79
2022/10/12 05:52:17;;;;;;;;;21.50;19.00;;;;;10.23;62.22;101977.97;4926400;28;45384;-79
2022/10/12 05:54:42;;;;;;;;;11.50;11.50;;;;;10.22;62.08;101980.59;4944236;28;45348;-79
2022/10/12 05:57:08;;;;;;;;;20.50;19.00;;;;;10.14;62.43;101975.19;4926442;28;46470;-80
2022/10/12 05:59:33;;;;;;;;;20.25;18.25;;;;;10.14;62.20;101972.56;4926641;28;45386;-80
2022/10/12 06:01:59;;;;;;;;;19.50;17.75;;;;;10.09;62.68;101974.22;4926954;28;45358;-79
2022/10/12 06:04:24;;;;;;;;;19.50;16.75;;;;;9.90;62.58;101946.69;4926569;28;45331;-79
2022/10/12 06:06:49;;;;;;;;;18.50;14.00;;;;;10.04;62.97;101981.16;4926513;28;46932;-79
2022/10/12 06:09:15;;;;;;;;;16.00;15.00;;;;;9.84;62.67;101952.72;4926589;28;45474;-79
2022/10/12 06:11:40;;;;;;;;;15.75;13.50;;;;;9.87;62.67;101954.53;4926671;28;45228;-80
2022/10/12 06:14:06;;;;;;;;;25.50;22.50;;;;;9.90;62.71;101957.22;4926026;28;45193;-80
2022/10/12 06:16:31;;;;;;;;;27.00;25.50;;;;;10.01;62.69;101978.47;4926151;28;47009;-80
2022/10/12 06:18:57;;;;;;;;;17.00;14.25;;;;;9.97;62.64;101972.28;4926356;28;45277;-80
2022/10/12 06:21:22;;;;;;;;;15.25;14.50;;;;;9.95;62.77;101966.09;4943910;28;45316;-80
2022/10/12 06:23:48;;;;;;;;;16.00;13.00;;;;;10.05;62.67;101989.06;4926503;28;45513;-79
2022/10/12 06:26:13;;;;;;;;;19.50;17.75;;;;;10.07;62.88;101989.97;4944365;28;45236;-81
2022/10/12 06:28:39;;;;;;;;;17.75;14.00;;;;;9.88;62.95;101964.19;4944310;28;45253;-81
2022/10/12 06:31:04;;;;;;;;;13.75;12.75;;;;;9.97;62.97;101981.88;4947129;28;45818;-81
2022/10/12 06:33:32;;;;;;;;;14.75;14.00;;;;;9.80;62.40;101950.88;4946481;28;45581;-80
2022/10/12 06:35:58;;;;;;;;;20.75;17.75;;;;;9.84;62.54;101965.88;4945417;28;46007;-80
2022/10/12 06:38:23;;;;;;;;;20.75;18.00;;;;;10.13;62.57;102004.97;4949143;28;45336;-82
2022/10/12 06:40:49;;;;;;;;;21.75;19.00;;;;;9.99;62.52;101974.91;4945545;28;45366;-81
2022/10/12 06:43:14;;;;;;;;;13.00;11.50;;;;;10.01;62.54;101981.09;4929881;28;45514;-81
2022/10/12 06:45:40;;;;;;;;;19.75;17.75;;;;;10.05;62.26;101985.53;4928292;28;47714;-82
2022/10/12 06:48:06;;;;;;;;;19.00;16.00;;;;;10.05;62.48;101993.44;4923548;28;45626;-79
2022/10/12 06:50:31;;;;;;;;;17.50;16.75;;;;;10.14;62.25;102005.03;4942514;28;45397;-81
2022/10/12 06:52:57;;;;;;;;;20.75;20.25;;;;;10.00;62.41;101984.59;4943731;28;45287;-80
2022/10/12 06:55:22;;;;;;;;;17.25;17.00;;;;;10.15;62.69;102008.53;4943520;28;45594;-81
2022/10/12 06:57:48;;;;;;;;;23.75;20.00;;;;;10.20;62.19;102016.53;4926567;28;45296;-83
2022/10/12 07:00:13;;;;;;;;;25.25;22.50;;;;;10.15;62.31;102013.78;4926017;28;45378;-82
2022/10/12 07:02:39;;;;;;;;;32.25;29.25;;;;;10.02;62.42;101980.22;4926064;28;45317;-82
2022/10/12 07:05:08;;;;;;;;;21.50;20.50;;;;;10.13;62.56;102002.34;4925565;28;46638;-82
2022/10/12 07:07:36;;;;;;;;;25.75;22.50;;;;;10.06;62.27;101985.59;4943230;28;45546;-83
2022/10/12 07:10:05;;;;;;;;;26.25;23.75;;;;;10.33;62.42;102032.59;4925918;28;45291;-80
2022/10/12 07:12:35;;;;;;;;;30.50;26.00;;;;;10.19;62.37;102007.75;4922253;28;45499;-80
2022/10/12 07:15:05;;;;;;;;;27.25;25.50;;;;;10.10;62.46;101987.41;4914148;28;46962;-83
2022/10/12 07:17:31;;;;;;;;;27.75;26.00;;;;;10.27;62.52;102019.34;4941785;28;45431;-82
2022/10/12 07:19:59;;;;;;;;;28.25;27.50;;;;;10.10;62.27;101991.78;4925659;28;45359;-82
2022/10/12 07:22:28;;;;;;;;;31.00;27.50;;;;;10.29;62.35;102021.97;4941770;28;45529;-82
2022/10/12 07:24:57;;;;;;;;;37.00;30.75;;;;;10.40;62.57;102032.69;4943115;28;45308;-82
2022/10/12 07:27:22;;;;;;;;;38.00;32.75;;;;;10.23;62.23;102011.31;4925125;28;45394;-83
2022/10/12 07:29:48;;;;;;;;;35.50;29.25;;;;;10.42;62.45;102041.50;4925727;28;45320;-84
2022/10/12 07:32:13;;;;;;;;;30.00;24.50;;;;;10.32;62.37;102011.53;4942727;28;45427;-83
2022/10/12 07:34:40;;;;;;;;;27.75;24.00;;;;;10.27;62.14;102000.00;4940769;28;45469;-83
2022/10/12 07:37:15;;;;;;;;;29.75;27.50;;;;;10.42;62.41;102021.34;4924930;28;45315;-83
2022/10/12 07:39:49;;;;;;;;;31.25;27.00;;;;;10.28;62.47;102000.03;4925719;28;45419;-83
2022/10/12 07:42:43;;;;;;;;;31.00;26.00;;;;;10.38;62.34;102016.88;4939395;28;45544;-82
2022/10/12 07:45:09;;;;;;;;;27.75;22.75;;;;;10.29;62.46;101998.28;4939021;28;48492;-83
2022/10/12 07:47:34;;;;;;;;;32.75;30.25;;;;;10.35;62.44;102011.56;4926053;28;45393;-84
2022/10/12 07:50:00;;;;;;;;;27.50;26.75;;;;;10.48;62.62;102028.47;4944137;28;45450;-83
2022/10/12 08:06:59;;;;;;;;;;;;;;;;;;;;;
2022/10/12 08:10:20;;;;;;;;;;;;;;;;;;;;;
2022/10/12 08:39:16;;;;;;;;;27.75;23.25;;;;;11.84;61.09;102024.28;4637098;30;45579;-84
2022/10/12 08:42:11;;;;;;;;;29.50;27.50;;;;;12.18;60.62;102056.38;4656656;30;45320;-83
2022/10/12 08:44:36;;;;;;;;;26.50;23.50;;;;;12.29;60.88;102063.53;4669527;30;45536;-83
2022/10/12 08:47:09;;;;;;;;;30.50;28.00;;;;;12.36;59.95;102052.16;4723382;30;45454;-84
2022/10/12 08:49:38;;;;;;;;;30.00;25.00;;;;;12.45;59.89;102047.84;4778329;29;46171;-84
2022/10/12 08:52:12;;;;;;;;;32.00;25.75;;;;;12.58;59.90;102065.59;4890143;28;45344;-84
2022/10/12 08:54:44;;;;;;;;;31.00;27.75;;;;;12.63;59.85;102055.94;4921480;28;45447;-84
2022/10/12 08:57:23;;;;;;;;;28.75;28.25;;;;;12.78;59.41;102066.66;4903478;28;45629;-85
2022/10/12 08:59:49;;;;;;;;;26.75;23.50;;;;;12.78;59.17;102039.34;4899596;28;46783;-83
2022/10/12 09:02:32;;;;;;;;;28.75;23.00;;;;;13.04;59.23;102063.31;4913547;28;45423;-82
2022/10/12 09:05:14;;;;;;;;;21.75;19.00;;;;;13.10;58.70;102060.72;4916356;28;45374;-83
2022/10/12 09:08:23;;;;;;;;;;;;;;;;;;;;;
2022/10/12 09:11:22;;;;;;;;;26.50;22.75;;;;;13.23;58.44;102027.28;4915303;28;74649;-82
2022/10/12 09:14:01;;;;;;;;;22.00;21.50;;;;;13.57;58.13;102057.50;4886831;29;45441;-83
2022/10/12 09:16:39;;;;;;;;;27.50;24.75;;;;;13.70;58.02;102053.16;4905563;28;45430;-83
2022/10/12 09:19:43;;;;;;;;;22.50;20.50;;;;;13.85;57.96;102055.88;4927334;28;45589;-81
2022/10/12 09:22:18;;;;;;;;;24.00;22.00;;;;;13.89;57.56;102049.69;4923393;28;45477;-84
2022/10/12 09:24:51;;;;;;;;;13.00;11.25;;;;;13.91;56.95;102025.91;4943873;28;45453;-84
2022/10/12 09:27:22;;;;;;;;;22.50;20.75;;;;;14.20;56.79;102054.22;4930690;28;44771;-83
2022/10/12 09:29:53;;;;;;;;;21.00;19.00;;;;;14.12;56.63;102023.31;4944158;28;45193;-81
2022/10/12 09:32:50;;;;;;;;;25.50;22.00;;;;;14.39;56.55;102037.47;4943127;28;47889;-83
2022/10/12 09:35:18;;;;;;;;;27.75;24.75;;;;;14.41;56.43;102017.19;4942872;28;45466;-81
2022/10/12 09:37:51;;;;;;;;;29.00;26.25;;;;;14.52;56.47;102015.44;4938542;28;45302;-84
2022/10/12 09:40:31;;;;;;;;;30.00;28.50;;;;;14.63;56.32;102012.78;4950315;28;45444;-82
2022/10/12 09:43:07;;;;;;;;;28.00;26.25;;;;;14.76;55.98;102011.91;4948096;28;45147;-82
2022/10/12 09:45:41;;;;;;;;;29.00;26.75;;;;;15.05;55.61;102032.22;4941393;28;45165;-85
2022/10/12 09:48:37;;;;;;;;;;;;;;;;;;;;;
2022/10/12 09:51:04;;;;;;;;;24.25;22.75;;;;;15.26;55.16;102011.81;4937703;28;73187;-81
2022/10/12 09:54:39;;;;;;;;;;;;;;;;;;;;;
2022/10/12 10:11:12;;;;;;;;;28.75;25.00;;;;;16.62;52.96;102005.78;4807586;29;45613;-84
2022/10/12 10:13:38;;;;;;;;;31.75;28.25;;;;;16.83;53.35;102009.19;4833544;28;45514;-83
2022/10/12 10:16:07;;;;;;;;;27.25;24.75;;;;;16.99;52.62;102005.47;4942227;28;45468;-87
2022/10/12 10:18:51;;;;;;;;;29.25;26.75;;;;;17.12;52.16;101992.94;4925925;28;47063;-85
2022/10/12 10:21:49;;;;;;;;;31.25;27.25;;;;;17.27;52.01;101981.22;4945984;28;45232;-85
2022/10/12 10:24:28;;;;;;;;;33.00;30.25;;;;;17.47;51.76;101981.88;4923968;28;45217;-84
2022/10/12 10:27:33;;;;;;;;;21.25;19.75;;;;;17.72;51.54;101984.19;4930531;28;45852;-85
2022/10/12 10:30:33;;;;;;;;;;;;;;;;;;;;;
2022/10/12 10:33:44;;;;;;;;;21.75;17.75;;;;;18.28;50.86;101995.84;4938045;28;72815;-84
2022/10/12 10:36:33;;;;;;;;;27.00;22.75;;;;;18.41;50.85;101977.88;4902017;28;45438;-83
2022/10/12 10:39:08;;;;;;;;;25.00;22.00;;;;;18.78;50.54;102007.50;4941578;28;45631;-86
2022/10/12 10:41:54;;;;;;;;;23.75;19.75;;;;;19.00;50.27;101996.44;4927751;28;45751;-84
2022/10/12 10:45:08;;;;;;;;;31.25;27.00;;;;;19.18;49.79;101993.44;4921748;28;45336;-83
2022/10/12 10:47:45;;;;;;;;;21.75;18.25;;;;;19.41;49.23;101984.09;4868714;29;45703;-83
2022/10/12 10:51:04;;;;;;;;;24.50;22.50;;;;;19.69;48.94;101989.75;4949814;28;45851;-83
2022/10/12 10:53:53;;;;;;;;;25.50;21.75;;;;;20.05;48.51;101986.25;4938899;28;47074;-84
2022/10/12 10:56:40;;;;;;;;;22.00;19.00;;;;;20.34;48.46;101989.13;4929283;28;45535;-85
2022/10/12 10:59:44;;;;;;;;;17.25;16.00;;;;;20.46;48.32;101984.38;4916997;28;45333;-89
2022/10/12 11:02:32;;;;;;;;;18.25;18.25;;;;;20.58;48.55;101990.34;4951993;28;46007;-87
2022/10/12 11:05:11;;;;;;;;;22.00;20.00;;;;;20.64;48.30;101988.41;4941413;28;46967;-87
2022/10/12 11:08:20;;;;;;;;;18.75;16.50;;;;;20.76;48.04;101984.53;4957229;28;45506;-85
2022/10/12 11:12:11;;;;;;;;;;;;;;;;;;;;;
2022/10/12 11:22:44;;;;;;;;;;;;;;;;;;;;;
2022/10/12 11:25:38;;;;;;;;;;;;;;;;;;;;;
2022/10/12 11:28:26;;;;;;;;;17.75;16.50;;;;;20.74;47.57;101967.63;4928306;28;71477;-85
2022/10/12 11:31:46;;;;;;;;;15.00;13.50;;;;;20.85;47.12;101967.34;4948485;28;46731;-83
2022/10/12 11:34:29;;;;;;;;;16.00;13.00;;;;;20.87;46.84;101958.34;4921014;28;45359;-83
2022/10/12 11:36:57;;;;;;;;;21.75;19.50;;;;;20.91;46.90;101954.69;4942658;28;45211;-82
2022/10/12 11:39:29;;;;;;;;;20.00;19.75;;;;;21.12;46.91;101952.34;4952877;28;45549;-83
2022/10/12 11:42:05;;;;;;;;;21.00;18.25;;;;;21.23;46.28;101944.88;4934408;28;46663;-84
2022/10/12 11:44:51;;;;;;;;;14.75;14.75;;;;;21.35;46.05;101935.56;4944944;28;45811;-83
2022/10/12 11:47:27;;;;;;;;;16.75;15.00;;;;;21.55;45.72;101941.25;4943387;28;45521;-80
2022/10/12 11:50:01;;;;;;;;;10.75;10.50;;;;;21.61;45.52;101942.00;4939003;28;44819;-84
2022/10/12 11:52:39;;;;;;;;;13.75;10.75;;;;;21.70;44.90;101933.66;4917185;28;47343;-83
2022/10/12 11:58:30;;;;;;;;;12.75;10.00;;;;;22.06;44.36;101923.56;4927704;28;45453;-88
2022/10/12 12:01:32;;;;;;;;;;;;;;;;;;;;;
2022/10/12 12:04:08;;;;;;;;;25.00;21.50;;;;;23.04;44.10;101928.28;4953184;28;75395;-86
2022/10/12 12:06:47;;;;;;;;;;;;;;;;;;;;;
2022/10/12 12:09:35;;;;;;;;;18.25;17.25;;;;;25.09;42.75;101918.06;4948158;28;68724;-84
2022/10/12 12:22:33;;;;;;;;;10.25;9.75;;;;;32.49;31.20;101883.41;4809259;29;45419;-85
2022/10/12 12:25:36;;;;;;;;;;;;;;;;;;;;;
2022/10/12 12:38:21;;;;;;;;;;;;;;;;;;;;;
2022/10/12 13:18:03;;;;;;;;;10.25;8.00;;;;;37.19;20.84;101870.13;4882260;29;45503;-85
2022/10/12 13:20:33;;;;;;;;;8.00;7.33;;;;;36.66;20.93;101859.78;4879594;29;45665;-86
2022/10/12 13:23:35;;;;;;;;;10.00;9.25;;;;;36.08;20.79;101870.84;4964959;28;45499;-86
2022/10/12 13:26:27;;;;;;;;;6.25;6.25;;;;;36.27;21.59;101876.28;4940787;28;45387;-85
2022/10/12 13:29:07;;;;;;;;;8.00;6.00;;;;;35.62;21.21;101861.41;4967731;28;46964;-86
2022/10/12 13:31:51;;;;;;;;;6.33;3.00;;;;;34.53;21.94;101854.72;4965366;28;45473;-83
2022/10/12 13:35:13;;;;;;;;;6.67;6.00;;;;;34.09;22.83;101849.41;4932919;28;45495;-85
2022/10/12 13:41:29;;;;;;;;;8.50;7.00;;;;;37.17;21.38;101843.84;4927758;28;45717;-86
2022/10/12 13:44:02;;;;;;;;;6.00;6.00;;;;;38.05;20.69;101855.13;4945362;28;45754;-91
2022/10/12 14:17:53;;;;;;;;;5.67;5.67;;;;;33.09;21.05;101815.88;4931740;23;45422;-90
2022/10/12 14:22:02;;;;;;;;;;;;;;;;;;;;;
2022/10/12 14:24:20;;;;;;;;;5.00;5.00;;;;;34.42;21.59;101822.84;4898762;28;45636;-81
2022/10/12 14:27:03;;;;;;;;;5.00;5.00;;;;;34.23;21.41;101819.00;4905378;28;45291;-80
2022/10/12 14:30:21;;;;;;;;;;;;;;;;;;;;;
2022/10/12 14:36:06;;;;;;;;;;;;;;;;;;;;;
2022/10/12 14:38:49;;;;;;;;;5.00;5.00;;;;;31.52;22.88;101791.88;4915505;28;72268;-85
2022/10/12 14:48:21;;;;;;;;;8.00;6.00;;;;;29.62;26.44;101803.50;4924109;28;45612;-88
2022/10/12 14:50:47;;;;;;;;;4.33;4.33;;;;;30.92;25.43;101794.41;4899693;28;45423;-84
2022/10/12 14:53:14;;;;;;;;;5.67;5.67;;;;;31.97;24.73;101812.03;4908922;28;48727;-83